createdAt,value
2022-11-06T00:01:41.807Z,7.10
2022-11-06T00:04:09.638Z,7.00
2022-11-06T00:06:48.640Z,7.00
2022-11-06T00:09:19.558Z,7.00
2022-11-06T00:11:48.260Z,7.00
2022-11-06T00:14:16.434Z,7.00
2022-11-06T00:16:45.261Z,6.90
2022-11-06T00:19:13.924Z,6.90
2022-11-06T00:21:41.660Z,6.90
2022-11-06T00:24:11.930Z,6.90
2022-11-06T00:26:41.390Z,6.90
2022-11-06T00:29:09.125Z,6.90
2022-11-06T00:31:38.426Z,6.90
2022-11-06T00:34:07.698Z,6.90
2022-11-06T00:36:36.173Z,6.90
2022-11-06T00:39:04.768Z,6.80
2022-11-06T00:41:32.545Z,6.80
2022-11-06T00:44:03.171Z,6.80
2022-11-06T00:46:31.401Z,6.80
2022-11-06T00:48:59.533Z,6.80
2022-11-06T00:51:29.541Z,6.80
2022-11-06T00:53:58.670Z,6.80
2022-11-06T00:56:27.377Z,6.70
2022-11-06T00:58:55.934Z,6.70
2022-11-06T01:01:27.068Z,6.70
2022-11-06T01:03:57.022Z,6.70
2022-11-06T01:06:26.277Z,6.70
2022-11-06T01:08:54.693Z,6.70
2022-11-06T01:11:24.229Z,6.70
2022-11-06T01:13:55.869Z,6.60
2022-11-06T01:16:26.381Z,6.60
2022-11-06T01:18:55.097Z,6.60
2022-11-06T01:21:25.710Z,6.60
2022-11-06T01:23:54.826Z,6.60
2022-11-06T01:26:37.345Z,6.60
2022-11-06T01:29:07.621Z,6.60
2022-11-06T01:31:37.450Z,6.60
2022-11-06T01:34:05.760Z,6.50
2022-11-06T01:36:34.343Z,6.50
2022-11-06T01:39:08.538Z,6.50
2022-11-06T01:41:38.582Z,6.50
2022-11-06T01:44:28.182Z,6.50
2022-11-06T01:46:57.227Z,6.50
2022-11-06T01:49:25.131Z,6.50
2022-11-06T01:51:55.919Z,6.40
2022-11-06T01:54:26.004Z,6.40
2022-11-06T01:56:57.008Z,6.40
2022-11-06T01:59:28.340Z,6.40
2022-11-06T02:01:57.568Z,6.40
2022-11-06T02:04:27.945Z,6.40
2022-11-06T02:06:57.582Z,6.40
2022-11-06T02:09:26.340Z,6.40
2022-11-06T02:11:59.811Z,6.40
2022-11-06T02:14:35.403Z,6.40
2022-11-06T02:17:08.961Z,6.40
2022-11-06T02:20:02.470Z,6.40
2022-11-06T02:22:46.385Z,6.30
2022-11-06T02:25:17.209Z,6.30
2022-11-06T02:27:49.748Z,6.30
2022-11-06T02:30:18.943Z,6.30
2022-11-06T02:32:51.303Z,6.30
2022-11-06T02:35:23.446Z,6.30
2022-11-06T02:37:55.550Z,6.30
2022-11-06T02:40:26.545Z,6.30
2022-11-06T02:42:56.757Z,6.30
2022-11-06T02:45:26.515Z,6.30
2022-11-06T02:47:57.164Z,6.30
2022-11-06T02:50:31.350Z,6.30
2022-11-06T02:53:02.902Z,6.30
2022-11-06T02:55:35.080Z,6.20
2022-11-06T02:58:10.224Z,6.20
2022-11-06T03:00:40.048Z,6.20
2022-11-06T03:03:11.774Z,6.20
2022-11-06T03:05:44.659Z,6.20
2022-11-06T03:08:18.784Z,6.20
2022-11-06T03:10:54.507Z,6.20
2022-11-06T03:13:32.775Z,6.20
2022-11-06T03:16:06.451Z,6.20
2022-11-06T03:18:39.933Z,6.20
2022-11-06T03:21:15.552Z,6.20
2022-11-06T03:23:48.436Z,6.20
2022-11-06T03:26:19.386Z,6.20
2022-11-06T03:28:54.151Z,6.20
2022-11-06T03:31:28.736Z,6.20
2022-11-06T03:34:00.802Z,6.20
2022-11-06T03:36:33.613Z,6.20
2022-11-06T03:39:03.970Z,6.20
2022-11-06T03:41:38.535Z,6.20
2022-11-06T03:44:10.288Z,6.10
2022-11-06T03:46:44.010Z,6.10
2022-11-06T03:49:17.091Z,6.10
2022-11-06T03:51:50.559Z,6.10
2022-11-06T03:54:21.215Z,6.10
2022-11-06T03:56:54.147Z,6.10
2022-11-06T03:59:27.000Z,6.10
2022-11-06T04:01:58.827Z,6.10
2022-11-06T04:04:31.643Z,6.10
2022-11-06T04:07:03.286Z,6.10
2022-11-06T04:09:51.444Z,6.10
2022-11-06T04:12:41.690Z,6.10
2022-11-06T04:15:13.715Z,6.10
2022-11-06T04:17:42.191Z,6.00
2022-11-06T04:20:34.846Z,6.00
2022-11-06T04:23:12.759Z,6.00
2022-11-06T04:26:10.655Z,6.00
2022-11-06T04:28:49.238Z,6.10
2022-11-06T04:31:28.518Z,6.10
2022-11-06T04:34:02.663Z,6.00
2022-11-06T04:36:38.483Z,6.00
2022-11-06T04:39:12.759Z,6.00
2022-11-06T04:41:47.929Z,6.00
2022-11-06T04:44:23.991Z,6.00
2022-11-06T04:46:56.711Z,6.00
2022-11-06T04:49:25.820Z,6.00
2022-11-06T04:51:54.315Z,6.00
2022-11-06T04:54:22.824Z,6.00
2022-11-06T04:56:51.344Z,6.00
2022-11-06T04:59:19.598Z,6.00
2022-11-06T05:01:47.639Z,6.00
2022-11-06T05:04:17.034Z,6.00
2022-11-06T05:06:44.937Z,6.00
2022-11-06T05:09:12.834Z,6.00
2022-11-06T05:11:40.616Z,5.90
2022-11-06T05:14:08.434Z,5.90
2022-11-06T05:16:36.339Z,6.00
2022-11-06T05:19:04.326Z,6.00
2022-11-06T05:21:50.778Z,6.00
2022-11-06T05:24:18.551Z,5.90
2022-11-06T05:26:46.337Z,5.90
2022-11-06T05:29:14.659Z,5.90
2022-11-06T05:31:42.421Z,5.90
2022-11-06T05:34:10.291Z,5.90
2022-11-06T05:36:39.431Z,5.90
2022-11-06T05:39:07.141Z,5.90
2022-11-06T05:41:34.872Z,5.90
2022-11-06T05:44:02.749Z,5.90
2022-11-06T05:46:49.394Z,5.90
2022-11-06T05:49:18.346Z,5.90
2022-11-06T05:51:47.806Z,5.90
2022-11-06T05:54:15.866Z,5.90
2022-11-06T05:56:43.606Z,5.90
2022-11-06T05:59:11.540Z,5.90
2022-11-06T06:01:39.568Z,5.90
2022-11-06T06:04:07.456Z,5.90
2022-11-06T06:06:35.498Z,5.90
2022-11-06T06:09:04.735Z,5.90
2022-11-06T06:11:32.519Z,5.90
2022-11-06T06:14:01.741Z,5.90
2022-11-06T06:16:29.480Z,5.90
2022-11-06T06:18:57.248Z,5.90
2022-11-06T06:21:26.015Z,5.90
2022-11-06T06:23:53.747Z,5.90
2022-11-06T06:26:22.800Z,5.90
2022-11-06T06:28:50.561Z,5.90
2022-11-06T06:31:18.324Z,5.90
2022-11-06T06:33:46.173Z,5.90
2022-11-06T06:36:13.891Z,5.90
2022-11-06T06:38:41.668Z,5.90
2022-11-06T06:41:10.191Z,5.90
2022-11-06T06:43:39.262Z,5.90
2022-11-06T06:46:07.872Z,5.90
2022-11-06T06:48:36.140Z,5.90
2022-11-06T06:51:04.722Z,5.90
2022-11-06T06:53:32.493Z,5.90
2022-11-06T06:56:01.654Z,5.90
2022-11-06T06:58:29.861Z,6.00
2022-11-06T07:01:02.023Z,6.00
2022-11-06T07:03:29.979Z,6.00
2022-11-06T07:05:58.468Z,6.00
2022-11-06T07:08:26.710Z,6.10
2022-11-06T07:10:54.557Z,6.10
2022-11-06T07:13:22.289Z,6.10
2022-11-06T07:15:50.057Z,6.20
2022-11-06T07:18:19.253Z,6.20
2022-11-06T07:20:46.991Z,6.30
2022-11-06T07:23:15.223Z,6.30
2022-11-06T07:25:42.988Z,6.40
2022-11-06T07:28:10.807Z,6.40
2022-11-06T07:30:38.551Z,6.50
2022-11-06T07:33:07.149Z,6.50
2022-11-06T07:35:36.315Z,6.50
2022-11-06T07:38:05.868Z,6.60
2022-11-06T07:40:33.632Z,6.60
2022-11-06T07:43:05.292Z,6.70
2022-11-06T07:45:33.124Z,6.70
2022-11-06T07:48:01.638Z,6.80
2022-11-06T07:50:29.719Z,6.90
2022-11-06T07:52:58.860Z,6.90
2022-11-06T07:55:26.643Z,7.00
2022-11-06T07:57:54.371Z,7.00
2022-11-06T08:00:22.337Z,7.10
2022-11-06T08:02:52.917Z,7.10
2022-11-06T08:05:20.786Z,7.20
2022-11-06T08:07:48.538Z,7.30
2022-11-06T08:10:17.790Z,7.30
2022-11-06T08:12:45.512Z,7.40
2022-11-06T08:15:13.362Z,7.40
2022-11-06T08:17:41.141Z,7.40
2022-11-06T08:20:10.740Z,7.50
2022-11-06T08:22:38.516Z,7.50
2022-11-06T08:25:07.328Z,7.60
2022-11-06T08:27:36.427Z,7.60
2022-11-06T08:30:04.531Z,7.70
2022-11-06T08:32:32.257Z,7.70
2022-11-06T08:35:00.000Z,7.70
2022-11-06T08:37:27.774Z,7.70
2022-11-06T08:39:55.710Z,7.80
2022-11-06T08:42:23.664Z,7.80
2022-11-06T08:44:52.755Z,7.80
2022-11-06T08:47:20.502Z,7.90
2022-11-06T08:49:48.233Z,7.90
2022-11-06T08:52:15.955Z,8.00
2022-11-06T08:54:43.712Z,8.10
2022-11-06T08:57:11.427Z,8.10
2022-11-06T08:59:39.196Z,8.20
2022-11-06T09:02:12.072Z,8.30
2022-11-06T09:04:41.459Z,8.30
2022-11-06T09:07:09.768Z,8.30
2022-11-06T09:09:37.488Z,8.40
2022-11-06T09:12:05.782Z,8.50
2022-11-06T09:14:34.831Z,8.60
2022-11-06T09:17:02.562Z,8.70
2022-11-06T09:19:31.660Z,8.80
2022-11-06T09:21:59.431Z,8.90
2022-11-06T09:24:57.103Z,8.90
2022-11-06T09:27:15.939Z,9.00
2022-11-06T09:29:44.445Z,9.10
2022-11-06T09:32:12.218Z,9.10
2022-11-06T09:34:41.323Z,9.10
2022-11-06T09:37:09.069Z,9.20
2022-11-06T09:39:36.875Z,9.20
2022-11-06T09:42:13.505Z,9.20
2022-11-06T09:44:54.913Z,9.30
2022-11-06T09:47:27.728Z,9.40
2022-11-06T09:49:58.255Z,9.50
2022-11-06T09:52:32.166Z,9.50
2022-11-06T09:55:03.931Z,9.60
2022-11-06T09:57:40.646Z,9.70
2022-11-06T10:00:13.068Z,9.80
2022-11-06T10:02:46.376Z,9.80
2022-11-06T10:05:24.071Z,9.70
2022-11-06T10:07:54.752Z,9.70
2022-11-06T10:10:29.396Z,9.70
2022-11-06T10:13:17.842Z,9.70
2022-11-06T10:15:53.768Z,9.80
2022-11-06T10:18:31.247Z,9.80
2022-11-06T10:21:10.476Z,9.90
2022-11-06T10:23:47.925Z,10.00
2022-11-06T10:26:19.294Z,10.10
2022-11-06T10:29:08.489Z,10.20
2022-11-06T10:31:45.315Z,10.30
2022-11-06T10:34:17.964Z,10.40
2022-11-06T10:36:50.374Z,10.40
2022-11-06T10:39:25.684Z,10.50
2022-11-06T10:41:59.938Z,10.50
2022-11-06T10:44:31.661Z,10.50
2022-11-06T10:47:04.834Z,10.50
2022-11-06T10:49:39.159Z,10.50
2022-11-06T10:52:36.470Z,10.40
2022-11-06T10:55:21.750Z,10.40
2022-11-06T10:57:57.857Z,10.40
2022-11-06T11:00:25.624Z,10.40
2022-11-06T11:02:57.242Z,10.40
2022-11-06T11:05:27.012Z,10.30
2022-11-06T11:07:56.408Z,10.40
2022-11-06T11:10:31.496Z,10.40
2022-11-06T11:13:05.482Z,10.40
2022-11-06T11:15:43.709Z,10.30
2022-11-06T11:18:18.764Z,10.30
2022-11-06T11:20:47.772Z,10.30
2022-11-06T11:23:22.979Z,10.40
2022-11-06T11:25:52.903Z,10.40
2022-11-06T11:28:32.755Z,10.40
2022-11-06T11:31:07.286Z,10.40
2022-11-06T11:33:35.935Z,10.40
2022-11-06T11:36:06.564Z,10.40
2022-11-06T11:38:37.092Z,10.40
2022-11-06T11:41:09.886Z,10.40
2022-11-06T11:43:37.806Z,10.40
2022-11-06T11:46:29.429Z,10.40
2022-11-06T11:48:58.534Z,10.40
2022-11-06T11:51:30.288Z,10.40
2022-11-06T11:54:06.107Z,10.50
2022-11-06T11:57:03.128Z,10.50
2022-11-06T11:59:26.787Z,10.50
2022-11-06T12:01:56.962Z,10.50
2022-11-06T12:04:28.951Z,10.60
2022-11-06T12:07:02.504Z,10.60
2022-11-06T12:09:35.888Z,10.70
2022-11-06T12:12:03.757Z,10.70
2022-11-06T12:14:37.153Z,10.70
2022-11-06T12:17:22.606Z,10.70
2022-11-06T12:19:54.907Z,10.70
2022-11-06T12:22:28.664Z,10.70
2022-11-06T12:25:01.774Z,10.80
2022-11-06T12:27:33.233Z,10.80
2022-11-06T12:30:05.748Z,10.80
2022-11-06T12:32:45.141Z,10.90
2022-11-06T12:35:21.475Z,10.90
2022-11-06T12:37:57.354Z,10.90
2022-11-06T12:40:30.257Z,10.80
2022-11-06T12:43:04.867Z,10.90
2022-11-06T12:45:46.861Z,10.90
2022-11-06T12:48:26.939Z,10.90
2022-11-06T12:50:58.894Z,10.90
2022-11-06T12:53:39.962Z,10.90
2022-11-06T12:56:17.976Z,10.90
2022-11-06T12:59:08.001Z,10.80
2022-11-06T13:01:45.248Z,10.80
2022-11-06T13:04:29.830Z,10.80
2022-11-06T13:07:27.035Z,10.80
2022-11-06T13:10:04.208Z,10.90
2022-11-06T13:12:42.276Z,10.90
2022-11-06T13:15:24.461Z,10.90
2022-11-06T13:17:56.441Z,11.00
2022-11-06T13:20:31.136Z,11.00
2022-11-06T13:23:05.661Z,11.10
2022-11-06T13:25:39.969Z,11.20
2022-11-06T13:28:23.459Z,11.20
2022-11-06T13:30:53.074Z,11.20
2022-11-06T13:33:26.357Z,11.30
2022-11-06T13:35:54.559Z,11.20
2022-11-06T13:38:27.276Z,11.20
2022-11-06T13:41:03.549Z,11.30
2022-11-06T13:43:37.143Z,11.20
2022-11-06T13:46:13.088Z,11.20
2022-11-06T13:48:49.651Z,11.20
2022-11-06T13:51:24.031Z,11.20
2022-11-06T13:53:59.874Z,11.20
2022-11-06T13:56:50.434Z,11.20
2022-11-06T13:59:47.400Z,11.20
2022-11-06T14:02:40.185Z,11.20
2022-11-06T14:05:33.616Z,11.20
2022-11-06T14:08:05.931Z,11.20
2022-11-06T14:10:37.837Z,11.20
2022-11-06T14:13:06.926Z,11.10
2022-11-06T14:15:39.578Z,11.10
2022-11-06T14:18:07.596Z,11.00
2022-11-06T14:20:37.657Z,11.00
2022-11-06T14:23:46.603Z,11.00
2022-11-06T14:26:15.032Z,10.90
2022-11-06T14:28:44.467Z,10.90
2022-11-06T14:31:51.867Z,10.80
2022-11-06T14:34:29.100Z,10.80
2022-11-06T14:36:57.052Z,10.70
2022-11-06T14:39:57.515Z,10.70
2022-11-06T14:42:32.109Z,10.70
2022-11-06T14:45:03.128Z,10.70
2022-11-06T14:47:37.621Z,10.60
2022-11-06T14:50:09.495Z,10.60
2022-11-06T14:52:44.919Z,10.50
2022-11-06T14:55:27.935Z,10.50
2022-11-06T14:57:58.185Z,10.50
2022-11-06T15:00:37.953Z,10.40
2022-11-06T15:03:19.621Z,10.40
2022-11-06T15:05:52.234Z,10.40
2022-11-06T15:08:59.166Z,10.40
2022-11-06T15:11:53.077Z,10.40
2022-11-06T15:14:56.162Z,10.40
2022-11-06T15:17:29.661Z,10.30
2022-11-06T15:20:24.369Z,10.30
2022-11-06T15:23:08.736Z,10.30
2022-11-06T15:25:40.384Z,10.30
2022-11-06T15:28:14.151Z,10.20
2022-11-06T15:30:46.894Z,10.20
2022-11-06T15:33:21.764Z,10.20
2022-11-06T15:35:51.335Z,10.10
2022-11-06T15:38:22.610Z,10.10
2022-11-06T15:40:54.002Z,10.10
2022-11-06T15:43:29.290Z,10.10
2022-11-06T15:46:18.698Z,10.10
2022-11-06T15:48:46.978Z,10.10
2022-11-06T15:51:23.876Z,10.00
2022-11-06T15:53:51.984Z,10.00
2022-11-06T15:56:23.536Z,10.00
2022-11-06T15:59:10.476Z,9.90
2022-11-06T16:01:38.441Z,9.90
2022-11-06T16:04:15.756Z,9.90
2022-11-06T16:06:47.483Z,9.90
2022-11-06T16:09:19.067Z,9.80
2022-11-06T16:11:48.535Z,9.80
2022-11-06T16:14:16.428Z,9.80
2022-11-06T16:16:48.566Z,9.70
2022-11-06T16:19:30.903Z,9.70
2022-11-06T16:22:04.180Z,9.70
2022-11-06T16:24:34.347Z,9.60
2022-11-06T16:27:07.509Z,9.60
2022-11-06T16:29:35.642Z,9.60
2022-11-06T16:32:06.054Z,9.60
2022-11-06T16:34:41.860Z,9.50
2022-11-06T16:37:37.616Z,9.50
2022-11-06T16:40:31.335Z,9.40
2022-11-06T16:43:03.517Z,9.40
2022-11-06T16:45:32.107Z,9.30
2022-11-06T16:48:27.050Z,9.20
2022-11-06T16:50:56.761Z,9.20
2022-11-06T16:53:28.518Z,9.10
2022-11-06T16:55:58.095Z,9.10
2022-11-06T16:58:26.732Z,9.10
2022-11-06T17:01:00.533Z,9.10
2022-11-06T17:03:33.219Z,9.00
2022-11-06T17:06:01.550Z,9.00
2022-11-06T17:08:35.593Z,8.90
2022-11-06T17:11:21.394Z,8.90
2022-11-06T17:13:50.446Z,8.90
2022-11-06T17:16:20.129Z,8.90
2022-11-06T17:18:48.666Z,8.80
2022-11-06T17:21:18.860Z,8.80
2022-11-06T17:23:48.810Z,8.80
2022-11-06T17:26:22.580Z,8.80
2022-11-06T17:28:50.363Z,8.80
2022-11-06T17:31:21.853Z,8.80
2022-11-06T17:33:49.715Z,8.70
2022-11-06T17:36:19.659Z,8.70
2022-11-06T17:38:49.344Z,8.70
2022-11-06T17:41:29.632Z,8.70
2022-11-06T17:43:58.508Z,8.70
2022-11-06T17:46:27.685Z,8.70
2022-11-06T17:48:56.296Z,8.70
2022-11-06T17:51:56.844Z,8.70
2022-11-06T17:54:27.483Z,8.70
2022-11-06T17:56:56.713Z,8.60
2022-11-06T17:59:24.780Z,8.60
2022-11-06T18:01:53.102Z,8.60
2022-11-06T18:04:22.453Z,8.60
2022-11-06T18:06:52.093Z,8.60
2022-11-06T18:09:21.257Z,8.50
2022-11-06T18:11:52.049Z,8.50
2022-11-06T18:14:20.544Z,8.50
2022-11-06T18:16:48.606Z,8.50
2022-11-06T18:19:18.918Z,8.50
2022-11-06T18:21:46.930Z,8.50
2022-11-06T18:24:14.694Z,8.50
2022-11-06T18:26:42.713Z,8.50
2022-11-06T18:29:13.111Z,8.50
2022-11-06T18:31:40.984Z,8.50
2022-11-06T18:34:16.675Z,8.50
2022-11-06T18:36:47.764Z,8.50
2022-11-06T18:39:15.545Z,8.50
2022-11-06T18:41:43.599Z,8.50
2022-11-06T18:44:12.689Z,8.50
2022-11-06T18:46:40.457Z,8.50
2022-11-06T18:49:10.523Z,8.50
2022-11-06T18:51:38.290Z,8.50
2022-11-06T18:54:08.284Z,8.50
2022-11-06T18:56:37.222Z,8.50
2022-11-06T18:59:05.560Z,8.50
2022-11-06T19:01:35.905Z,8.50
2022-11-06T19:04:04.958Z,8.50
2022-11-06T19:06:33.348Z,8.50
2022-11-06T19:09:01.179Z,8.50
2022-11-06T19:11:28.936Z,8.50
2022-11-06T19:13:56.710Z,8.50
2022-11-06T19:16:24.447Z,8.50
2022-11-06T19:21:29.727Z,8.50
2022-11-06T19:24:03.351Z,8.50
2022-11-06T19:26:32.753Z,8.50
2022-11-06T19:29:01.253Z,8.50
2022-11-06T19:31:29.989Z,8.50
2022-11-06T19:34:00.310Z,8.50
2022-11-06T19:36:29.630Z,8.50
2022-11-06T19:38:58.442Z,8.50
2022-11-06T19:41:26.578Z,8.50
2022-11-06T19:43:54.348Z,8.50
2022-11-06T19:46:26.955Z,8.50
2022-11-06T19:48:59.009Z,8.50
2022-11-06T19:51:26.780Z,8.50
2022-11-06T19:53:55.141Z,8.50
2022-11-06T19:56:23.988Z,8.50
2022-11-06T19:58:53.181Z,8.50
2022-11-06T20:01:22.069Z,8.50
2022-11-06T20:03:50.266Z,8.50
2022-11-06T20:06:19.483Z,8.60
2022-11-06T20:08:49.161Z,8.60
2022-11-06T20:11:17.817Z,8.50
2022-11-06T20:13:46.617Z,8.50
2022-11-06T20:16:16.162Z,8.50
2022-11-06T20:18:45.563Z,8.60
2022-11-06T20:21:13.643Z,8.60
2022-11-06T20:23:42.789Z,8.60
2022-11-06T20:26:11.134Z,8.60
2022-11-06T20:28:38.996Z,8.60
2022-11-06T20:31:08.349Z,8.60
2022-11-06T20:33:36.955Z,8.60
2022-11-06T20:36:11.897Z,8.60
2022-11-06T20:38:40.137Z,8.60
2022-11-06T20:41:09.273Z,8.60
2022-11-06T20:43:37.064Z,8.60
2022-11-06T20:46:05.267Z,8.60
2022-11-06T20:48:33.855Z,8.70
2022-11-06T20:51:03.259Z,8.70
2022-11-06T20:53:31.760Z,8.70
2022-11-06T20:56:00.880Z,8.70
2022-11-06T20:58:31.400Z,8.70
2022-11-06T21:01:03.697Z,8.70
2022-11-06T21:03:31.880Z,8.70
2022-11-06T21:05:59.870Z,8.70
2022-11-06T21:08:28.765Z,8.70
2022-11-06T21:10:58.917Z,8.80
2022-11-06T21:13:31.350Z,8.80
2022-11-06T21:16:00.331Z,8.80
2022-11-06T21:18:28.689Z,8.80
2022-11-06T21:20:56.654Z,8.80
2022-11-06T21:23:24.479Z,8.80
2022-11-06T21:25:52.243Z,8.80
2022-11-06T21:28:20.005Z,8.80
2022-11-06T21:30:50.089Z,8.80
2022-11-06T21:33:17.871Z,8.80
2022-11-06T21:35:45.632Z,8.80
2022-11-06T21:38:13.407Z,8.80
2022-11-06T21:40:41.408Z,8.90
2022-11-06T21:43:09.355Z,8.90
2022-11-06T21:45:37.530Z,8.90
2022-11-06T21:48:14.775Z,8.90
2022-11-06T21:50:53.646Z,8.90
2022-11-06T21:53:38.970Z,8.90
2022-11-06T21:56:07.360Z,8.90
2022-11-06T21:58:35.147Z,8.90
2022-11-06T22:01:06.451Z,8.90
2022-11-06T22:03:35.632Z,8.90
2022-11-06T22:06:08.972Z,8.90
2022-11-06T22:08:37.612Z,8.90
2022-11-06T22:11:13.570Z,8.90
2022-11-06T22:13:41.398Z,8.90
2022-11-06T22:16:09.775Z,8.90
2022-11-06T22:18:39.926Z,8.90
2022-11-06T22:21:09.116Z,8.90
2022-11-06T22:23:37.486Z,9.00
2022-11-06T22:26:06.603Z,9.00
2022-11-06T22:28:34.759Z,9.00
2022-11-06T22:31:03.367Z,9.00
2022-11-06T22:33:31.733Z,9.00
2022-11-06T22:36:04.795Z,9.00
2022-11-06T22:38:32.616Z,9.00
2022-11-06T22:41:02.759Z,9.00
2022-11-06T22:43:32.168Z,9.00
2022-11-06T22:46:01.067Z,9.00
2022-11-06T22:48:29.945Z,9.00
2022-11-06T22:50:58.006Z,9.00
2022-11-06T22:53:27.125Z,9.00
2022-11-06T22:55:57.268Z,9.00
2022-11-06T22:58:25.508Z,9.00
2022-11-06T23:00:53.965Z,9.00
2022-11-06T23:03:22.490Z,9.10
2022-11-06T23:05:50.890Z,9.00
2022-11-06T23:08:19.128Z,9.00
2022-11-06T23:10:48.444Z,9.00
2022-11-06T23:13:16.311Z,9.00
2022-11-06T23:15:44.210Z,9.00
2022-11-06T23:18:12.088Z,9.00
2022-11-06T23:20:40.076Z,9.10
2022-11-06T23:23:07.868Z,9.10
2022-11-06T23:25:35.691Z,9.10
2022-11-06T23:28:05.182Z,9.10
2022-11-06T23:30:33.105Z,9.10
2022-11-06T23:33:00.860Z,9.10
2022-11-06T23:35:32.592Z,9.10
2022-11-06T23:38:01.077Z,9.10
2022-11-06T23:40:28.951Z,9.10
2022-11-06T23:42:57.490Z,9.10
2022-11-06T23:45:44.111Z,9.10
2022-11-06T23:48:13.061Z,9.10
2022-11-06T23:50:40.888Z,9.10
2022-11-06T23:53:08.949Z,9.10
2022-11-06T23:55:36.677Z,9.10
2022-11-06T23:58:04.658Z,9.10
